createdAt,value
2019-04-05T03:52:33.418Z,42.05
2019-04-05T05:40:35.099Z,28.70
2019-04-05T05:43:23.833Z,28.80
2019-04-05T05:46:09.835Z,27.37
2019-04-05T05:48:56.918Z,26.55
2019-04-05T05:51:44.134Z,26.68
2019-04-05T05:54:31.460Z,25.88
2019-04-05T05:57:18.429Z,25.90
2019-04-05T06:00:05.969Z,25.10
2019-04-05T06:02:52.453Z,25.85
2019-04-05T06:05:39.828Z,22.55
2019-04-05T06:08:29.216Z,27.20
2019-04-05T06:11:15.636Z,19.73
2019-04-05T06:14:02.063Z,21.48
2019-04-05T06:16:49.240Z,20.00
2019-04-05T06:19:35.952Z,20.90
2019-04-05T06:22:22.544Z,19.85
2019-04-05T06:25:10.020Z,20.52
2019-04-05T06:27:59.649Z,20.70
2019-04-05T06:30:45.736Z,20.32
2019-04-05T06:33:35.705Z,18.48
2019-04-05T06:36:21.519Z,21.52
2019-04-05T06:39:08.639Z,19.37
2019-04-05T06:41:55.668Z,19.40
2019-04-05T06:44:42.164Z,20.40
2019-04-05T06:47:29.587Z,20.35
2019-04-05T06:50:16.025Z,19.07
2019-04-05T06:53:03.253Z,21.73
2019-04-05T06:55:49.893Z,20.45
2019-04-05T06:58:37.210Z,20.12
2019-04-05T07:01:22.615Z,20.52
2019-04-05T08:20:54.354Z,16.82
2019-04-05T08:23:42.484Z,16.23
2019-04-05T08:26:30.591Z,15.95
2019-04-05T09:46:28.282Z,6.85
2019-04-05T09:49:16.392Z,8.85
2019-04-05T10:59:58.064Z,9.00
2019-04-05T11:27:22.101Z,8.33
2019-04-05T11:30:10.505Z,10.63
2019-04-05T11:42:15.355Z,10.48
2019-04-05T11:45:03.584Z,9.88
2019-04-05T12:33:41.755Z,10.32
2019-04-05T12:36:29.824Z,9.65
2019-04-05T16:21:20.316Z,10.70
2019-04-05T16:24:06.983Z,11.63
2019-04-05T16:26:53.563Z,11.45
2019-04-05T16:29:40.796Z,11.33
2019-04-05T16:32:28.278Z,11.40
2019-04-05T16:35:14.937Z,13.00
2019-04-05T16:40:51.456Z,11.40
2019-04-05T16:43:38.784Z,11.57
2019-04-05T16:46:26.237Z,11.90
2019-04-05T16:49:12.799Z,10.88
2019-04-05T16:52:00.377Z,10.18
2019-04-05T16:54:29.517Z,9.55
2019-04-05T16:57:17.592Z,12.93
2019-04-05T18:33:01.296Z,11.40
2019-04-05T20:05:50.470Z,9.55
2019-04-05T20:20:53.927Z,9.80
2019-04-05T20:26:27.832Z,9.65
2019-04-05T22:07:39.629Z,13.30
2019-04-05T22:10:27.900Z,14.68
2019-04-05T22:13:16.480Z,23.18
2019-04-05T22:19:14.816Z,16.40
2019-04-05T22:22:04.708Z,18.48
2019-04-05T22:24:59.163Z,19.62
2019-04-05T22:27:42.861Z,17.02
2019-04-05T22:33:31.232Z,20.20
2019-04-05T22:36:19.576Z,15.32
